»·PEaware :: SKW3148 KFWA-KORD

SKW3148 :: KFWA-KORD

FLIGHT INFORMATION

Flight Status: Arrived
Operator:
SkyWest Airlines
More flights by this operator :: More flights under this callsign
Pilot: Adam M. (17337)
Aircraft: CANADAIR CL-600 CRJ-700
(CRJ7)
More flights by this aircraft type
Origin: KFWA Ft Wayne Intl
United States
Destination: KORD Chicago-O'Hare Intl
United States
More flights between these airports :: More routes between these airports
Route: FWA WATSN4
File this flight plan on PilotEdge
Remarks: RMK / SIMBRIEF
Altitude:
(Current/Filed)
18,000ft
Speed:
(Current/Filed)
385kts
Departed: 25-Nov-21 04:56 AM
Arrived: 25-Nov-21 05:34 AM
Distance/Time
Traveled:
136nm/0:38
Distance/Time
To Go:
Arrived

Flight Plot

Page will automatically refresh every two minutes.

Flight plan parsing failed; only flown route is shown


Map Options




Map Legend


Flown Route
Filed Route
Departure Airport
Arrival Airport
Navaid (VOR, NDB)
Fix

Horizontal Profiles

Position Reports

Time Latitude Longitude Heading Altitude Ground
Speed
25-Nov-21 04:39 40.987044 -85.188217 357 822ft 0kts
25-Nov-21 04:40 40.987044 -85.188217 357 822ft 0kts
25-Nov-21 04:41 40.987044 -85.188217 357 822ft 0kts
25-Nov-21 04:42 40.987044 -85.188217 357 822ft 0kts
25-Nov-21 04:43 40.987044 -85.188217 357 822ft 0kts
25-Nov-21 04:44 40.987044 -85.188217 357 822ft 0kts
25-Nov-21 04:45 40.987044 -85.188217 357 822ft 0kts
25-Nov-21 04:46 40.987044 -85.188217 357 822ft 0kts
25-Nov-21 04:47 40.986882 -85.188212 2 822ft 2kts
25-Nov-21 04:48 40.986436 -85.188733 92 822ft 1kts
25-Nov-21 04:49 40.986436 -85.188738 92 822ft 0kts
25-Nov-21 04:50 40.986436 -85.188737 92 822ft 0kts
25-Nov-21 04:51 40.986436 -85.188734 92 822ft 0kts
25-Nov-21 04:52 40.986427 -85.188454 92 822ft 7kts
25-Nov-21 04:53 40.987051 -85.183946 123 822ft 8kts
25-Nov-21 04:54 40.985652 -85.183143 225 822ft 14kts
25-Nov-21 04:55 40.959032 -85.217458 225 3092ft 191kts
25-Nov-21 04:56 40.915704 -85.244064 152 6326ft 228kts
25-Nov-21 04:57 40.929085 -85.166512 14 9170ft 280kts
25-Nov-21 04:58 40.993829 -85.208283 306 12037ft 285kts
25-Nov-21 04:59 41.049784 -85.289569 303 14846ft 308kts
25-Nov-21 05:00 41.107744 -85.374496 303 17369ft 316kts
25-Nov-21 05:01 41.166031 -85.466196 292 18063ft 322kts
25-Nov-21 05:02 41.201896 -85.577518 282 18063ft 332kts
25-Nov-21 05:03 41.230718 -85.694510 281 18060ft 335kts
25-Nov-21 05:04 41.258058 -85.810157 280 18058ft 335kts
25-Nov-21 05:05 41.275184 -85.930695 272 18058ft 330kts
25-Nov-21 05:06 41.286307 -86.051700 272 18056ft 329kts
25-Nov-21 05:07 41.299779 -86.172126 273 18056ft 330kts
25-Nov-21 05:08 41.313725 -86.292273 273 18058ft 330kts
25-Nov-21 05:09 41.327708 -86.413083 273 18055ft 329kts
25-Nov-21 05:10 41.383374 -86.514253 312 16467ft 353kts
25-Nov-21 05:11 41.455628 -86.596680 296 14754ft 326kts
25-Nov-21 05:12 41.490230 -86.700561 286 13110ft 313kts
25-Nov-21 05:13 41.519487 -86.808879 285 11399ft 308kts
25-Nov-21 05:14 41.545241 -86.910396 285 10391ft 271kts
25-Nov-21 05:15 41.567788 -87.003980 285 9286ft 261kts
25-Nov-21 05:16 41.588697 -87.096049 285 8189ft 258kts
25-Nov-21 05:17 41.608907 -87.187485 285 7088ft 254kts
25-Nov-21 05:18 41.628404 -87.277745 285 6122ft 249kts
25-Nov-21 05:19 41.647145 -87.366175 285 6019ft 248kts
25-Nov-21 05:20 41.685010 -87.434612 339 6005ft 243kts
25-Nov-21 05:21 41.747082 -87.433435 0 6018ft 212kts
25-Nov-21 05:22 41.806479 -87.426590 0 5531ft 213kts
25-Nov-21 05:23 41.861810 -87.427178 323 4925ft 197kts
25-Nov-21 05:24 41.891645 -87.486794 300 4377ft 182kts
25-Nov-21 05:25 41.914463 -87.543534 299 4036ft 165kts
25-Nov-21 05:26 41.935552 -87.597126 300 4026ft 156kts
25-Nov-21 05:27 41.954948 -87.645142 301 4034ft 143kts
25-Nov-21 05:28 41.961137 -87.693005 246 3684ft 146kts
25-Nov-21 05:29 41.955370 -87.741060 281 3051ft 135kts
25-Nov-21 05:30 41.957624 -87.786135 279 2315ft 133kts
25-Nov-21 05:31 41.957906 -87.836835 276 1644ft 137kts
25-Nov-21 05:32 41.957519 -87.888627 274 892ft 137kts
25-Nov-21 05:33 41.957693 -87.920813 280 675ft 29kts
25-Nov-21 05:34 41.958874 -87.926092 271 675ft 25kts
25-Nov-21 05:35 41.960107 -87.930953 314 675ft 18kts
25-Nov-21 05:36 41.963978 -87.928941 89 675ft 17kts
25-Nov-21 05:37 41.967029 -87.925522 0 675ft 32kts
25-Nov-21 05:38 41.972049 -87.924797 84 675ft 15kts
25-Nov-21 05:39 41.972070 -87.914747 89 675ft 23kts
25-Nov-21 05:40 41.972836 -87.911218 314 675ft 19kts
25-Nov-21 05:41 41.971947 -87.906848 99 675ft 21kts
25-Nov-21 05:42 41.972100 -87.902660 263 675ft 5kts
25-Nov-21 05:43 41.972935 -87.903703 64 675ft 3kts
25-Nov-21 05:44 41.972958 -87.903637 64 675ft 0kts
25-Nov-21 05:45 41.972958 -87.903637 64 675ft 0kts
25-Nov-21 05:46 41.972958 -87.903637 64 675ft 0kts
25-Nov-21 05:47 41.972958 -87.903637 64 675ft 0kts

Navigation Log

Ident Type
Flight plan parsing failed, navigation log unavailable